createdAt,value
2023-04-08T00:02:00.536Z,98830.50
2023-04-08T00:05:03.305Z,98837.38
2023-04-08T00:08:07.021Z,98838.44
2023-04-08T00:11:09.536Z,98840.66
2023-04-08T00:14:13.676Z,98839.25
2023-04-08T00:17:16.738Z,98837.50
2023-04-08T00:20:19.479Z,98836.69
2023-04-08T00:23:22.500Z,98833.66
2023-04-08T00:26:25.007Z,98830.34
2023-04-08T00:29:28.857Z,98833.75
2023-04-08T00:32:31.478Z,98829.16
2023-04-08T00:35:34.144Z,98833.50
2023-04-08T00:38:36.800Z,98838.13
2023-04-08T00:41:39.329Z,98840.53
2023-04-08T00:44:43.185Z,98844.19
2023-04-08T00:47:46.717Z,98845.03
2023-04-08T00:50:49.274Z,98852.34
2023-04-08T00:53:51.792Z,98852.00
2023-04-08T00:56:54.336Z,98859.03
2023-04-08T00:59:58.232Z,98851.22
2023-04-08T01:03:07.135Z,98859.66
2023-04-08T01:06:14.859Z,98860.00
2023-04-08T01:09:19.839Z,98854.66
2023-04-08T01:12:27.234Z,98853.84
2023-04-08T01:15:32.003Z,98855.50
2023-04-08T01:18:36.583Z,98849.38
2023-04-08T01:21:39.764Z,98845.16
2023-04-08T01:24:44.342Z,98853.06
2023-04-08T01:27:49.808Z,98858.13
2023-04-08T01:30:52.796Z,98850.09
2023-04-08T01:33:56.464Z,98856.31
2023-04-08T01:36:59.486Z,98857.53
2023-04-08T01:40:02.597Z,98852.03
2023-04-08T01:43:09.168Z,98846.25
2023-04-08T01:46:12.920Z,98844.88
2023-04-08T01:49:16.910Z,98847.97
2023-04-08T01:52:19.930Z,98855.19
2023-04-08T01:55:22.879Z,98843.16
2023-04-08T01:58:28.931Z,98854.06
2023-04-08T02:01:31.855Z,98852.06
2023-04-08T02:04:35.389Z,98856.22
2023-04-08T02:07:38.134Z,98855.88
2023-04-08T02:10:40.795Z,98847.66
2023-04-08T02:13:44.707Z,98853.50
2023-04-08T02:16:51.386Z,98860.78
2023-04-08T02:20:00.009Z,98848.38
2023-04-08T02:23:07.414Z,98851.59
2023-04-08T02:26:15.003Z,98849.97
2023-04-08T02:29:20.300Z,98857.66
2023-04-08T02:32:23.878Z,98853.91
2023-04-08T02:35:26.901Z,98847.78
2023-04-08T02:38:30.673Z,98850.41
2023-04-08T02:41:33.106Z,98854.50
2023-04-08T02:44:37.027Z,98859.19
2023-04-08T02:47:39.664Z,98849.56
2023-04-08T02:50:42.258Z,98849.09
2023-04-08T02:53:44.744Z,98842.75
2023-04-08T02:56:47.310Z,98855.25
2023-04-08T02:59:51.206Z,98845.34
2023-04-08T03:02:54.202Z,98853.41
2023-04-08T03:05:57.257Z,98852.03
2023-04-08T03:08:59.880Z,98855.03
2023-04-08T03:12:02.528Z,98851.63
2023-04-08T03:15:07.484Z,98848.28
2023-04-08T03:18:10.267Z,98851.31
2023-04-08T03:21:12.835Z,98848.28
2023-04-08T03:24:15.617Z,98852.13
2023-04-08T03:27:19.210Z,98854.13
2023-04-08T03:30:23.245Z,98850.78
2023-04-08T03:33:26.089Z,98852.44
2023-04-08T03:36:28.630Z,98857.75
2023-04-08T03:39:31.239Z,98856.38
2023-04-08T03:42:35.071Z,98857.34
2023-04-08T03:45:38.986Z,98856.44
2023-04-08T03:48:41.565Z,98856.66
2023-04-08T03:51:44.093Z,98859.97
2023-04-08T03:54:47.624Z,98866.81
2023-04-08T03:57:50.161Z,98855.56
2023-04-08T04:00:54.540Z,98856.34
2023-04-08T04:03:57.223Z,98865.03
2023-04-08T04:06:59.870Z,98863.09
2023-04-08T04:10:02.398Z,98864.31
2023-04-08T04:13:05.765Z,98850.31
2023-04-08T04:16:09.710Z,98860.00
2023-04-08T04:19:12.410Z,98852.72
2023-04-08T04:22:14.988Z,98859.69
2023-04-08T04:25:17.672Z,98863.53
2023-04-08T04:28:20.327Z,98864.19
2023-04-08T04:31:26.411Z,98863.16
2023-04-08T04:34:29.175Z,98870.72
2023-04-08T04:37:31.763Z,98865.66
2023-04-08T04:40:34.322Z,98869.72
2023-04-08T04:43:36.950Z,98875.09
2023-04-08T04:46:40.804Z,98871.31
2023-04-08T04:49:43.415Z,98880.59
2023-04-08T04:52:46.455Z,98882.09
2023-04-08T04:55:49.078Z,98883.44
2023-04-08T04:58:51.895Z,98889.69
2023-04-08T05:01:57.573Z,98889.25
2023-04-08T05:05:00.539Z,98896.59
2023-04-08T05:08:03.127Z,98898.72
2023-04-08T05:11:06.012Z,98895.84
2023-04-08T05:14:10.666Z,98906.41
2023-04-08T05:17:14.548Z,98904.22
2023-04-08T05:20:17.740Z,98907.53
2023-04-08T05:23:20.385Z,98910.00
2023-04-08T05:26:23.156Z,98907.22
2023-04-08T05:29:25.813Z,98909.88
2023-04-08T05:32:30.977Z,98913.09
2023-04-08T05:35:34.007Z,98919.25
2023-04-08T05:38:36.589Z,98927.19
2023-04-08T05:41:39.191Z,98928.78
2023-04-08T05:44:43.907Z,98932.53
2023-04-08T05:47:47.879Z,98930.97
2023-04-08T05:50:50.691Z,98934.31
2023-04-08T05:53:53.190Z,98933.19
2023-04-08T05:56:55.777Z,98930.59
2023-04-08T05:59:58.474Z,98944.53
2023-04-08T06:03:02.828Z,98945.22
2023-04-08T06:06:05.446Z,98945.22
2023-04-08T06:09:08.839Z,98953.91
2023-04-08T06:12:11.371Z,98956.72
2023-04-08T06:15:13.973Z,98950.34
2023-04-08T06:18:18.188Z,98952.78
2023-04-08T06:21:21.627Z,98960.03
2023-04-08T06:24:24.433Z,98958.59
2023-04-08T06:27:27.202Z,98961.19
2023-04-08T06:30:29.797Z,98967.66
2023-04-08T06:33:34.485Z,98959.91
2023-04-08T06:36:36.990Z,98963.41
2023-04-08T06:39:40.187Z,98966.66
2023-04-08T06:42:44.465Z,98968.94
2023-04-08T06:45:47.401Z,98974.81
2023-04-08T06:48:51.724Z,98972.25
2023-04-08T06:51:54.528Z,98976.41
2023-04-08T06:54:57.083Z,98979.91
2023-04-08T06:57:59.717Z,98987.34
2023-04-08T07:04:31.558Z,98983.19
2023-04-08T07:07:34.163Z,98982.03
2023-04-08T07:10:36.928Z,98987.31
2023-04-08T07:13:39.657Z,98990.59
2023-04-08T07:16:42.269Z,98993.97
2023-04-08T07:19:47.161Z,98994.28
2023-04-08T07:22:49.872Z,98988.81
2023-04-08T07:25:52.499Z,98991.41
2023-04-08T07:28:55.295Z,98994.41
2023-04-08T07:31:57.911Z,99001.09
2023-04-08T07:35:01.832Z,98993.97
2023-04-08T07:38:04.532Z,99003.78
2023-04-08T07:41:07.162Z,98999.25
2023-04-08T07:44:09.878Z,99010.88
2023-04-08T07:47:13.061Z,99012.97
2023-04-08T07:50:17.380Z,99014.56
2023-04-08T07:53:20.759Z,99008.38
2023-04-08T07:56:24.824Z,99010.84
2023-04-08T07:59:27.429Z,99011.81
2023-04-08T08:02:30.156Z,99005.69
2023-04-08T08:05:36.967Z,99012.00
2023-04-08T08:08:39.601Z,99022.13
2023-04-08T08:11:42.180Z,99015.34
2023-04-08T08:14:44.677Z,99024.94
2023-04-08T08:17:47.339Z,99024.16
2023-04-08T08:20:51.199Z,99031.44
2023-04-08T08:23:54.846Z,99025.31
2023-04-08T08:26:57.696Z,99032.97
2023-04-08T08:30:00.289Z,99030.34
2023-04-08T08:33:02.942Z,99031.41
2023-04-08T08:36:07.311Z,99034.16
2023-04-08T08:39:10.086Z,99039.66
2023-04-08T08:42:21.453Z,99042.97
2023-04-08T08:45:23.973Z,99041.59
2023-04-08T08:48:26.685Z,99031.94
2023-04-08T08:51:32.680Z,99038.25
2023-04-08T08:54:35.780Z,99035.50
2023-04-08T08:57:38.292Z,99037.78
2023-04-08T09:00:42.454Z,99043.13
2023-04-08T09:03:45.216Z,99043.69
2023-04-08T09:06:50.953Z,99048.22
2023-04-08T09:09:54.317Z,99052.75
2023-04-08T09:12:57.629Z,99044.97
2023-04-08T09:16:04.911Z,99047.25
2023-04-08T09:19:11.610Z,99048.94
2023-04-08T09:22:15.813Z,99046.34
2023-04-08T09:25:24.710Z,99055.50
2023-04-08T09:28:27.388Z,99057.47
2023-04-08T09:31:31.900Z,99054.81
2023-04-08T09:34:34.725Z,99053.44
2023-04-08T09:37:38.796Z,99054.28
2023-04-08T09:40:42.484Z,99053.09
2023-04-08T09:43:49.412Z,99050.84
2023-04-08T09:46:57.848Z,99050.03
2023-04-08T09:50:04.675Z,99051.16
2023-04-08T09:53:11.289Z,99056.97
2023-04-08T09:56:16.227Z,99043.97
2023-04-08T09:59:21.686Z,99040.75
2023-04-08T10:02:28.338Z,99037.88
2023-04-08T10:05:31.348Z,99057.16
2023-04-08T10:08:35.953Z,99061.63
2023-04-08T10:11:38.615Z,99053.53
2023-04-08T10:14:41.259Z,99042.63
2023-04-08T10:17:43.897Z,99048.47
2023-04-08T10:20:47.416Z,99051.41
2023-04-08T10:23:59.300Z,99049.41
2023-04-08T10:27:04.296Z,99052.38
2023-04-08T10:30:40.008Z,99047.63
2023-04-08T10:33:42.748Z,99045.19
2023-04-08T10:36:45.512Z,99043.47
2023-04-08T10:39:52.995Z,99047.47
2023-04-08T10:42:55.889Z,99051.06
2023-04-08T10:45:58.497Z,99049.66
2023-04-08T10:49:01.604Z,99041.47
2023-04-08T10:52:08.008Z,99043.16
2023-04-08T10:55:12.038Z,99047.25
2023-04-08T10:58:14.656Z,99051.41
2023-04-08T11:01:17.341Z,99049.44
2023-04-08T11:04:20.710Z,99052.66
2023-04-08T11:07:23.396Z,99051.72
2023-04-08T11:10:28.675Z,99048.69
2023-04-08T11:13:31.891Z,99051.97
2023-04-08T11:16:35.234Z,99047.38
2023-04-08T11:19:39.238Z,99056.38
2023-04-08T11:22:42.006Z,99047.19
2023-04-08T11:25:47.099Z,99051.75
2023-04-08T11:28:51.544Z,99045.56
2023-04-08T11:31:54.150Z,99044.25
2023-04-08T11:34:56.753Z,99052.66
2023-04-08T11:37:59.605Z,99043.47
2023-04-08T11:41:03.626Z,99042.31
2023-04-08T11:44:06.903Z,99046.31
2023-04-08T11:47:09.688Z,99044.25
2023-04-08T11:50:12.320Z,99043.00
2023-04-08T11:53:19.758Z,99039.38
2023-04-08T11:56:24.561Z,99047.09
2023-04-08T11:59:29.487Z,99038.66
2023-04-08T12:02:32.585Z,99035.13
2023-04-08T12:05:35.583Z,99043.00
2023-04-08T12:08:39.219Z,99042.00
2023-04-08T12:11:43.343Z,99048.59
2023-04-08T12:14:45.986Z,99047.44
2023-04-08T12:17:48.563Z,99051.38
2023-04-08T12:20:51.209Z,99045.53
2023-04-08T12:23:53.891Z,99050.69
2023-04-08T12:26:57.816Z,99046.97
2023-04-08T12:30:00.402Z,99049.59
2023-04-08T12:33:04.068Z,99051.16
2023-04-08T12:36:07.189Z,99057.81
2023-04-08T12:39:09.856Z,99050.59
2023-04-08T12:42:13.817Z,99050.47
2023-04-08T12:45:16.558Z,99056.78
2023-04-08T12:48:19.277Z,99053.56
2023-04-08T12:51:21.808Z,99057.25
2023-04-08T12:54:24.364Z,99059.31
2023-04-08T12:57:28.377Z,99048.44
2023-04-08T13:00:31.092Z,99046.69
2023-04-08T13:03:35.190Z,99050.81
2023-04-08T13:06:37.820Z,99049.56
2023-04-08T13:09:40.588Z,99044.38
2023-04-08T13:12:44.510Z,99051.28
2023-04-08T13:15:47.122Z,99045.22
2023-04-08T13:18:49.904Z,99052.34
2023-04-08T13:21:53.045Z,99040.81
2023-04-08T13:24:55.555Z,99049.41
2023-04-08T13:27:59.507Z,99049.09
2023-04-08T13:31:02.001Z,99045.56
2023-04-08T13:34:05.097Z,99047.16
2023-04-08T13:37:07.747Z,99046.97
2023-04-08T13:40:12.229Z,99054.75
2023-04-08T13:43:16.314Z,99053.25
2023-04-08T13:46:19.002Z,99049.69
2023-04-08T13:49:21.664Z,99038.44
2023-04-08T13:52:24.255Z,99040.47
2023-04-08T13:55:26.773Z,99040.63
2023-04-08T13:58:31.488Z,99045.19
2023-04-08T14:01:34.349Z,99049.56
2023-04-08T14:04:37.525Z,99040.19
2023-04-08T14:07:40.144Z,99048.19
2023-04-08T14:10:42.759Z,99041.09
2023-04-08T14:13:46.723Z,99040.63
2023-04-08T14:16:49.643Z,99044.25
2023-04-08T14:19:52.240Z,99035.41
2023-04-08T14:22:56.715Z,99044.25
2023-04-08T14:26:01.409Z,99050.53
2023-04-08T14:29:06.015Z,99040.78
2023-04-08T14:32:08.623Z,99041.84
2023-04-08T14:35:11.442Z,99045.16
2023-04-08T14:38:14.134Z,99050.19
2023-04-08T14:41:16.785Z,99045.03
2023-04-08T14:44:20.965Z,99050.06
2023-04-08T14:47:23.592Z,99046.66
2023-04-08T14:50:26.543Z,99051.81
2023-04-08T14:53:29.371Z,99049.81
2023-04-08T14:56:32.512Z,99046.56
2023-04-08T14:59:36.607Z,99058.22
2023-04-08T15:02:39.254Z,99056.88
2023-04-08T15:05:42.833Z,99059.38
2023-04-08T15:08:45.727Z,99057.44
2023-04-08T15:11:48.343Z,99062.66
2023-04-08T15:14:52.173Z,99062.31
2023-04-08T15:17:54.709Z,99071.88
2023-04-08T15:20:58.098Z,99070.47
2023-04-08T15:24:00.897Z,99072.72
2023-04-08T15:27:03.466Z,99075.63
2023-04-08T15:30:08.903Z,99068.00
2023-04-08T15:33:12.617Z,99077.41
2023-04-08T15:36:19.583Z,99075.16
2023-04-08T15:39:22.530Z,99085.66
2023-04-08T15:42:25.452Z,99083.59
2023-04-08T15:45:29.617Z,99073.53
2023-04-08T15:48:32.761Z,99078.88
2023-04-08T15:51:35.343Z,99084.34
2023-04-08T15:54:38.144Z,99084.25
2023-04-08T15:57:40.838Z,99092.00
2023-04-08T16:00:44.725Z,99085.41
2023-04-08T16:03:47.457Z,99088.66
2023-04-08T16:06:50.493Z,99094.63
2023-04-08T16:09:52.996Z,99091.69
2023-04-08T16:12:55.493Z,99097.34
2023-04-08T16:16:02.821Z,99100.28
2023-04-08T16:19:05.475Z,99100.84
2023-04-08T16:22:08.059Z,99108.69
2023-04-08T16:25:11.124Z,99104.69
2023-04-08T16:28:14.032Z,99105.69
2023-04-08T16:31:18.964Z,99108.66
2023-04-08T16:34:22.725Z,99111.41
2023-04-08T16:37:25.557Z,99114.97
2023-04-08T16:40:28.272Z,99116.06
2023-04-08T16:43:31.098Z,99111.75
2023-04-08T16:46:36.210Z,99123.31
2023-04-08T16:49:38.757Z,99126.22
2023-04-08T16:52:43.999Z,99121.16
2023-04-08T16:55:46.539Z,99125.97
2023-04-08T16:58:49.139Z,99136.59
2023-04-08T17:01:53.079Z,99130.78
2023-04-08T17:04:55.774Z,99131.75
2023-04-08T17:07:58.501Z,99133.81
2023-04-08T17:11:06.856Z,99133.00
2023-04-08T17:14:10.093Z,99137.78
2023-04-08T17:17:14.009Z,99145.19
2023-04-08T17:20:16.666Z,99138.13
2023-04-08T17:23:19.280Z,99143.91
2023-04-08T17:26:23.452Z,99148.88
2023-04-08T17:29:26.156Z,99144.84
2023-04-08T17:32:30.171Z,99158.41
2023-04-08T17:35:32.990Z,99162.22
2023-04-08T17:38:39.707Z,99160.28
2023-04-08T17:41:43.994Z,99168.59
2023-04-08T17:44:48.350Z,99171.47
2023-04-08T17:47:52.756Z,99166.16
2023-04-08T17:51:00.610Z,99170.59
2023-04-08T17:54:03.194Z,99174.09
2023-04-08T17:57:05.794Z,99171.72
2023-04-08T18:00:09.361Z,99175.78
2023-04-08T18:03:13.228Z,99179.63
2023-04-08T18:06:16.064Z,99173.47
2023-04-08T18:09:19.042Z,99176.44
2023-04-08T18:12:21.774Z,99176.44
2023-04-08T18:15:24.395Z,99190.03
2023-04-08T18:18:28.497Z,99180.19
2023-04-08T18:21:31.467Z,99193.06
2023-04-08T18:24:34.144Z,99195.91
2023-04-08T18:27:36.612Z,99203.00
2023-04-08T18:30:39.278Z,99203.28
2023-04-08T18:33:43.230Z,99208.63
2023-04-08T18:36:45.818Z,99210.69
2023-04-08T18:39:48.540Z,99222.22
2023-04-08T18:42:51.003Z,99227.16
2023-04-08T18:45:53.902Z,99225.56
2023-04-08T18:48:58.005Z,99221.72
2023-04-08T18:52:02.938Z,99227.16
2023-04-08T18:55:06.763Z,99236.59
2023-04-08T18:58:09.310Z,99234.47
2023-04-08T19:01:11.830Z,99246.53
2023-04-08T19:04:16.667Z,99244.50
2023-04-08T19:07:19.235Z,99236.28
2023-04-08T19:10:23.506Z,99244.00
2023-04-08T19:13:26.141Z,99254.41
2023-04-08T19:16:28.680Z,99251.78
2023-04-08T19:19:32.646Z,99257.56
2023-04-08T19:22:35.233Z,99258.69
2023-04-08T19:25:37.952Z,99257.84
2023-04-08T19:28:40.444Z,99255.25
2023-04-08T19:31:43.196Z,99262.31
2023-04-08T19:34:47.290Z,99260.88
2023-04-08T19:37:49.808Z,99260.06
2023-04-08T19:40:52.276Z,99254.63
2023-04-08T19:43:55.101Z,99269.38
2023-04-08T19:46:57.917Z,99274.63
2023-04-08T19:50:01.931Z,99281.50
2023-04-08T19:53:04.548Z,99282.09
2023-04-08T19:56:07.254Z,99282.63
2023-04-08T19:59:10.888Z,99279.28
2023-04-08T20:02:13.474Z,99272.22
2023-04-08T20:05:17.673Z,99268.97
2023-04-08T20:08:20.436Z,99276.63
2023-04-08T20:11:23.023Z,99273.41
2023-04-08T20:14:26.209Z,99280.28
2023-04-08T20:17:28.900Z,99281.69
2023-04-08T20:20:32.821Z,99283.13
2023-04-08T20:23:39.296Z,99288.56
2023-04-08T20:26:41.898Z,99280.47
2023-04-08T20:29:44.385Z,99281.56
2023-04-08T20:32:47.192Z,99277.78
2023-04-08T20:35:53.323Z,99281.47
2023-04-08T20:38:55.966Z,99284.41
2023-04-08T20:41:59.087Z,99280.88
2023-04-08T20:45:01.615Z,99286.91
2023-04-08T20:48:04.405Z,99281.69
2023-04-08T20:51:08.653Z,99288.25
2023-04-08T20:54:11.205Z,99286.41
2023-04-08T20:57:13.782Z,99281.56
2023-04-08T21:00:17.298Z,99289.28
2023-04-08T21:03:20.616Z,99276.81
2023-04-08T21:06:24.703Z,99280.97
2023-04-08T21:09:27.235Z,99281.63
2023-04-08T21:12:29.732Z,99286.44
2023-04-08T21:15:32.261Z,99277.53
2023-04-08T21:18:35.078Z,99285.25
2023-04-08T21:21:38.935Z,99276.72
2023-04-08T21:24:41.451Z,99270.47
2023-04-08T21:27:43.981Z,99273.88
2023-04-08T21:30:46.611Z,99275.34
2023-04-08T21:33:49.429Z,99274.38
2023-04-08T21:36:53.439Z,99279.31
2023-04-08T21:39:56.099Z,99275.59
2023-04-08T21:42:58.643Z,99286.41
2023-04-08T21:46:01.240Z,99276.19
2023-04-08T21:49:04.011Z,99268.38
2023-04-08T21:52:08.068Z,99272.88
2023-04-08T21:55:11.408Z,99273.13
2023-04-08T21:58:14.519Z,99280.41
2023-04-08T22:01:17.091Z,99278.81
2023-04-08T22:04:20.438Z,99276.28
2023-04-08T22:07:24.305Z,99281.44
2023-04-08T22:10:27.624Z,99273.56
2023-04-08T22:13:30.377Z,99277.75
2023-04-08T22:16:33.114Z,99272.63
2023-04-08T22:19:35.846Z,99270.84
2023-04-08T22:22:39.702Z,99264.97
2023-04-08T22:25:42.692Z,99261.03
2023-04-08T22:28:45.362Z,99266.53
2023-04-08T22:31:47.894Z,99257.09
2023-04-08T22:34:50.652Z,99261.72
2023-04-08T22:37:54.489Z,99263.16
2023-04-08T22:40:57.222Z,99264.47
2023-04-08T22:44:00.673Z,99265.25
2023-04-08T22:47:03.237Z,99269.53
2023-04-08T22:50:07.007Z,99264.06
2023-04-08T22:53:10.945Z,99264.03
2023-04-08T22:56:13.495Z,99260.22
2023-04-08T22:59:16.219Z,99259.53
2023-04-08T23:02:18.788Z,99257.25
2023-04-08T23:05:21.720Z,99255.00
2023-04-08T23:08:25.712Z,99255.53
2023-04-08T23:11:28.211Z,99247.94
2023-04-08T23:14:30.750Z,99258.25
2023-04-08T23:17:33.339Z,99261.72
2023-04-08T23:20:35.925Z,99261.94
2023-04-08T23:23:39.780Z,99260.84
2023-04-08T23:26:42.242Z,99269.00
2023-04-08T23:29:44.880Z,99264.59
2023-04-08T23:32:47.472Z,99270.03
2023-04-08T23:35:50.048Z,99268.13
2023-04-08T23:38:54.264Z,99268.19
2023-04-08T23:41:57.412Z,99273.41
2023-04-08T23:45:00.166Z,99264.16
2023-04-08T23:48:02.802Z,99265.75
2023-04-08T23:51:06.081Z,99261.94
2023-04-08T23:54:10.115Z,99266.81
2023-04-08T23:57:12.722Z,99262.38
